Time;durP1;ratioP1;P1;durP2;ratioP2;P2;SDS_P1;SDS_P2;PMS_P1;PMS_P2;Temp;Humidity;BMP_temperature;BMP_pressure;BME280_temperature;BME280_humidity;BME280_pressure;Samples;Min_cycle;Max_cycle;Signal;HPM_P1;HPM_P2
2022/05/27 00:00:18;;;;;;;6.60;1.77;;;17.30;99.90;;;;;;4900838;29;20028;-85
2022/05/27 00:02:46;;;;;;;8.45;2.88;;;17.20;99.90;;;;;;4918730;29;20099;-83
2022/05/27 00:05:12;;;;;;;11.27;2.33;;;17.10;99.90;;;;;;4901587;29;20165;-83
2022/05/27 00:07:38;;;;;;;11.55;2.50;;;17.00;99.90;;;;;;4918750;29;20517;-87
2022/05/27 00:10:04;;;;;;;6.80;2.97;;;16.90;99.90;;;;;;4901296;29;20032;-85
2022/05/27 00:12:37;;;;;;;5.97;1.83;;;16.90;99.90;;;;;;4901756;29;20035;-84
2022/05/27 00:15:22;;;;;;;9.82;3.35;;;16.80;99.90;;;;;;4918481;29;20191;-86
2022/05/27 00:17:48;;;;;;;10.80;2.50;;;16.80;99.90;;;;;;4917915;29;20067;-83
2022/05/27 00:20:14;;;;;;;10.18;2.83;;;16.70;99.90;;;;;;4918596;29;20059;-82
2022/05/27 00:23:07;;;;;;;12.90;2.70;;;16.70;99.90;;;;;;4918238;29;20372;-85
2022/05/27 00:25:33;;;;;;;8.68;2.88;;;16.70;99.90;;;;;;4900661;29;20020;-83
2022/05/27 00:27:59;;;;;;;6.38;1.90;;;16.60;99.90;;;;;;4918109;29;20028;-83
2022/05/27 00:30:27;;;;;;;8.23;1.90;;;16.50;99.90;;;;;;4918246;29;20366;-83
2022/05/27 00:32:53;;;;;;;5.55;1.90;;;16.50;99.90;;;;;;4935587;29;20424;-83
2022/05/27 00:35:25;;;;;;;9.65;2.65;;;16.40;99.90;;;;;;4933743;29;20095;-83
2022/05/27 00:37:52;;;;;;;7.28;2.30;;;16.30;99.90;;;;;;4917960;29;20139;-83
2022/05/27 00:40:19;;;;;;;5.93;2.55;;;16.30;99.90;;;;;;4900903;29;20115;-83
2022/05/27 00:42:56;;;;;;;7.13;2.20;;;16.20;99.90;;;;;;4917717;29;20020;-82
2022/05/27 00:45:25;;;;;;;8.45;2.58;;;16.00;99.90;;;;;;4917655;29;20520;-83
2022/05/27 00:47:53;;;;;;;9.05;2.38;;;15.90;99.90;;;;;;4917986;29;20024;-82
2022/05/27 00:50:25;;;;;;;5.95;2.42;;;15.80;99.90;;;;;;4899915;29;20027;-82
2022/05/27 00:52:51;;;;;;;9.30;2.50;;;15.70;99.90;;;;;;4917759;29;20388;-82
2022/05/27 00:55:41;;;;;;;9.27;2.40;;;15.70;99.90;;;;;;4900503;29;20128;-84
2022/05/27 00:58:17;;;;;;;7.75;2.47;;;15.60;99.90;;;;;;4917671;29;20119;-84
2022/05/27 01:00:42;;;;;;;;;;;15.60;99.90;;;;;;4901091;29;20035;-85
2022/05/27 01:03:27;;;;;;;7.88;2.42;;;15.50;99.90;;;;;;4917474;29;20351;-85
2022/05/27 01:05:53;;;;;;;9.40;2.50;;;15.50;99.90;;;;;;4917192;29;20083;-85
2022/05/27 01:08:22;;;;;;;5.68;2.35;;;15.50;99.90;;;;;;4900553;29;20031;-84
2022/05/27 01:11:04;;;;;;;9.73;2.30;;;15.50;99.90;;;;;;4917340;29;20480;-86
2022/05/27 01:14:09;;;;;;;5.78;2.00;;;15.50;99.90;;;;;;4902160;29;20115;-85
2022/05/27 01:16:48;;;;;;;7.00;2.67;;;15.40;99.90;;;;;;4917312;29;20055;-84
2022/05/27 01:20:19;;;;;;;4.15;2.28;;;15.40;99.90;;;;;;4915841;29;20032;-84
2022/05/27 01:23:16;;;;;;;6.10;2.42;;;15.40;99.90;;;;;;4916912;29;20028;-84
2022/05/27 01:26:04;;;;;;;2.60;2.10;;;15.40;99.90;;;;;;4898191;29;20501;-84
2022/05/27 01:29:04;;;;;;;8.00;2.00;;;15.40;99.90;;;;;;4923516;29;20028;-84
2022/05/27 01:31:49;;;;;;;5.85;2.20;;;15.40;99.90;;;;;;4899625;29;20043;-83
2022/05/27 01:34:25;;;;;;;8.05;2.67;;;15.40;99.90;;;;;;4917110;29;20028;-84
2022/05/27 01:36:51;;;;;;;5.13;2.05;;;15.40;99.90;;;;;;4916878;29;20480;-84
2022/05/27 01:39:50;;;;;;;7.75;3.35;;;15.40;99.90;;;;;;4916828;29;20091;-84
2022/05/27 01:42:49;;;;;;;4.93;2.22;;;15.40;99.90;;;;;;4933002;29;20028;-84
2022/05/27 01:45:24;;;;;;;5.35;2.78;;;15.30;99.90;;;;;;4916207;29;20033;-87
2022/05/27 01:48:13;;;;;;;4.75;2.25;;;15.30;99.90;;;;;;4916970;29;20031;-85
2022/05/27 01:50:53;;;;;;;11.50;2.67;;;15.30;99.90;;;;;;4898055;29;20448;-84
2022/05/27 01:53:30;;;;;;;5.97;2.80;;;15.30;99.90;;;;;;4901727;29;20124;-84
2022/05/27 01:56:00;;;;;;;10.30;3.35;;;15.30;99.90;;;;;;4934922;29;20384;-84
2022/05/27 01:58:38;;;;;;;6.18;2.50;;;15.30;99.90;;;;;;4935480;29;20032;-84
2022/05/27 02:01:09;;;;;;;7.60;2.75;;;15.20;99.90;;;;;;4917143;29;20489;-85
2022/05/27 02:03:39;;;;;;;10.18;2.70;;;15.20;99.90;;;;;;4900035;29;20024;-84
2022/05/27 02:06:23;;;;;;;6.30;2.42;;;15.20;99.90;;;;;;4899849;29;20540;-86
2022/05/27 02:08:54;;;;;;;5.20;1.67;;;15.10;99.90;;;;;;4903292;29;20029;-85
2022/05/27 02:11:22;;;;;;;8.23;2.30;;;15.20;99.90;;;;;;4897792;29;20497;-84
2022/05/27 02:14:43;;;;;;;5.60;2.00;;;15.10;99.90;;;;;;4916823;29;20091;-83
2022/05/27 02:17:15;;;;;;;2.50;2.00;;;15.10;99.90;;;;;;4883582;29;20440;-84
2022/05/27 02:20:10;;;;;;;3.88;2.05;;;15.10;99.90;;;;;;4884780;29;20049;-84
2022/05/27 02:22:40;;;;;;;6.22;2.25;;;15.10;99.90;;;;;;4878239;29;20061;-84
2022/05/27 02:25:11;;;;;;;5.22;2.25;;;15.10;99.90;;;;;;4897274;29;20040;-85
2022/05/27 02:31:04;;;;;;;5.00;1.80;;;15.00;99.90;;;;;;4883260;29;20035;-84
2022/05/27 02:36:33;;;;;;;3.53;1.40;;;15.00;99.90;;;;;;4916507;29;20031;-83
2022/05/27 02:38:59;;;;;;;6.00;1.45;;;15.00;99.90;;;;;;4897263;29;20043;-84
2022/05/27 02:41:31;;;;;;;6.43;2.08;;;15.00;99.90;;;;;;4915000;29;20489;-84
2022/05/27 02:44:42;;;;;;;5.35;1.17;;;15.00;99.90;;;;;;4915723;29;20031;-83
2022/05/27 02:47:54;;;;;;;2.78;1.30;;;15.10;99.90;;;;;;4872480;29;20072;-84
2022/05/27 02:51:02;;;;;;;2.15;0.95;;;15.10;99.90;;;;;;4903084;29;20036;-83
2022/05/27 02:53:50;;;;;;;2.63;0.88;;;15.10;99.90;;;;;;4901436;29;20027;-83
2022/05/27 02:56:39;;;;;;;1.88;1.02;;;15.00;99.90;;;;;;4915945;29;20483;-87
2022/05/27 02:59:07;;;;;;;1.38;0.93;;;15.00;99.90;;;;;;4915827;29;20503;-84
2022/05/27 03:01:33;;;;;;;1.65;0.80;;;15.00;99.90;;;;;;4897819;29;20138;-84
2022/05/27 03:04:06;;;;;;;1.45;0.75;;;15.00;99.90;;;;;;4916388;29;20379;-84
2022/05/27 03:06:57;;;;;;;0.50;0.50;;;15.00;99.90;;;;;;4899185;29;20115;-85
2022/05/27 03:09:42;;;;;;;1.35;0.98;;;15.00;99.90;;;;;;4897452;29;20370;-86
2022/05/27 03:12:46;;;;;;;1.05;0.98;;;15.00;99.90;;;;;;4895788;29;20028;-82
2022/05/27 03:15:12;;;;;;;1.05;0.98;;;15.00;99.90;;;;;;4908151;29;20059;-83
2022/05/27 03:18:09;;;;;;;1.83;1.15;;;15.00;99.90;;;;;;4915372;29;20028;-84
2022/05/27 03:21:11;;;;;;;1.58;1.10;;;15.00;99.90;;;;;;4916390;29;20028;-85
2022/05/27 03:23:55;;;;;;;1.00;0.80;;;15.00;99.90;;;;;;4879884;29;20059;-83
2022/05/27 03:26:59;;;;;;;2.30;1.08;;;15.00;99.90;;;;;;4915536;29;20020;-85
2022/05/27 03:29:42;;;;;;;0.85;0.80;;;15.00;99.90;;;;;;4912294;29;20063;-85
2022/05/27 03:32:27;;;;;;;2.95;1.08;;;15.00;99.90;;;;;;4914005;29;20029;-84
2022/05/27 03:35:05;;;;;;;1.17;1.05;;;14.90;99.90;;;;;;4916423;29;20028;-84
2022/05/27 03:37:36;;;;;;;1.85;0.90;;;14.90;99.90;;;;;;4903917;29;20039;-82
2022/05/27 03:40:23;;;;;;;2.25;1.10;;;14.90;99.90;;;;;;4928540;29;20035;-84
2022/05/27 03:42:50;;;;;;;1.98;1.00;;;15.00;99.90;;;;;;4919700;29;20034;-85
2022/05/27 03:45:19;;;;;;;6.70;1.30;;;14.90;99.90;;;;;;4923217;29;20039;-85
2022/05/27 03:47:52;;;;;;;5.40;1.05;;;15.00;99.90;;;;;;4907407;29;20016;-82
2022/05/27 03:50:24;;;;;;;0.70;0.70;;;14.90;99.90;;;;;;4916134;29;20111;-82
2022/05/27 03:52:52;;;;;;;1.83;1.05;;;14.90;99.90;;;;;;4918356;29;20084;-85
2022/05/27 03:55:26;;;;;;;0.95;0.90;;;14.90;99.90;;;;;;4897985;29;20035;-82
2022/05/27 03:57:52;;;;;;;0.70;0.50;;;14.90;99.90;;;;;;4899946;29;20032;-83
2022/05/27 04:00:18;;;;;;;1.15;0.73;;;14.90;99.90;;;;;;4906651;29;20031;-83
2022/05/27 04:02:44;;;;;;;6.65;0.95;;;14.90;99.90;;;;;;4918373;29;20028;-83
2022/05/27 04:05:12;;;;;;;1.65;0.68;;;14.90;99.90;;;;;;4918210;29;20028;-82
2022/05/27 04:07:38;;;;;;;4.43;0.57;;;14.90;99.90;;;;;;4918637;29;20046;-82
2022/05/27 04:10:17;;;;;;;2.67;0.73;;;14.80;99.90;;;;;;4904781;29;20099;-83
2022/05/27 04:12:43;;;;;;;1.27;0.88;;;14.80;99.90;;;;;;4906203;29;20039;-87
2022/05/27 04:15:09;;;;;;;1.75;0.63;;;14.80;99.90;;;;;;4916815;29;20395;-83
2022/05/27 04:18:00;;;;;;;0.68;0.68;;;14.80;99.90;;;;;;4905278;29;20111;-83
2022/05/27 04:20:26;;;;;;;0.70;0.60;;;14.80;99.90;;;;;;4913002;29;20037;-83
2022/05/27 04:22:56;;;;;;;0.77;0.60;;;14.80;99.90;;;;;;4917500;29;20087;-84
2022/05/27 04:25:28;;;;;;;1.85;0.47;;;14.80;99.90;;;;;;4916523;29;20038;-84
2022/05/27 04:27:54;;;;;;;0.40;0.40;;;14.80;99.90;;;;;;4887573;29;20040;-82
2022/05/27 04:30:20;;;;;;;0.50;0.50;;;14.80;99.90;;;;;;4917870;29;20411;-84
2022/05/27 04:32:55;;;;;;;0.47;0.47;;;14.80;99.90;;;;;;4907492;29;20032;-87
2022/05/27 04:35:22;;;;;;;2.40;0.70;;;14.80;99.90;;;;;;4916970;29;20028;-87
2022/05/27 04:37:48;;;;;;;1.13;0.60;;;14.70;99.90;;;;;;4932907;29;20028;-85
2022/05/27 04:40:33;;;;;;;5.45;0.70;;;14.60;99.90;;;;;;4922574;29;20031;-89
2022/05/27 04:43:01;;;;;;;1.90;0.80;;;14.40;99.90;;;;;;4902149;29;20032;-89
2022/05/27 04:45:27;;;;;;;0.98;0.90;;;14.00;99.90;;;;;;4928887;29;20431;-86
2022/05/27 04:48:13;;;;;;;3.58;0.70;;;13.70;99.90;;;;;;4901150;29;20032;-86
2022/05/27 04:50:39;;;;;;;1.70;0.70;;;13.40;99.90;;;;;;4917475;29;20449;-85
2022/05/27 04:53:05;;;;;;;1.52;0.90;;;13.30;99.90;;;;;;4934277;29;20102;-86
2022/05/27 04:55:34;;;;;;;4.65;0.98;;;13.20;99.90;;;;;;4936796;29;20035;-85
2022/05/27 04:57:59;;;;;;;3.00;0.95;;;13.10;99.90;;;;;;4919956;29;20036;-85
2022/05/27 05:00:30;;;;;;;1.20;0.82;;;13.00;99.90;;;;;;4900561;29;20429;-84
2022/05/27 05:02:57;;;;;;;2.88;1.08;;;13.00;99.90;;;;;;4903112;29;20103;-86
2022/05/27 05:05:31;;;;;;;6.00;1.27;;;13.00;99.90;;;;;;4928222;29;20036;-84
2022/05/27 05:10:50;;;;;;;1.88;0.80;;;13.00;99.90;;;;;;4859398;29;20067;-84
2022/05/27 05:13:16;;;;;;;0.63;0.60;;;13.00;99.90;;;;;;4860471;29;20041;-83
2022/05/27 05:15:57;;;;;;;1.98;0.90;;;13.10;99.90;;;;;;4877788;29;20500;-83
2022/05/27 05:18:23;;;;;;;1.30;0.70;;;13.10;99.90;;;;;;4876802;29;20444;-84
2022/05/27 05:20:59;;;;;;;3.70;1.00;;;13.10;99.90;;;;;;4877949;29;20040;-83
2022/05/27 05:23:37;;;;;;;1.35;0.75;;;13.10;99.90;;;;;;4876321;29;20033;-83
2022/05/27 05:26:02;;;;;;;4.43;0.88;;;13.10;99.90;;;;;;4877693;29;20037;-84
2022/05/27 05:28:28;;;;;;;2.50;1.00;;;13.10;99.90;;;;;;4894398;29;20512;-83
2022/05/27 05:31:00;;;;;;;3.30;0.90;;;13.10;99.90;;;;;;4916046;29;20500;-83
2022/05/27 05:33:25;;;;;;;4.88;1.00;;;13.20;99.90;;;;;;4914140;29;20032;-84
2022/05/27 05:36:04;;;;;;;1.20;0.88;;;13.20;99.90;;;;;;4916454;29;20433;-83
2022/05/27 05:38:29;;;;;;;3.65;1.50;;;13.20;99.90;;;;;;4898256;29;20444;-85
2022/05/27 05:40:57;;;;;;;3.70;1.20;;;13.20;99.90;;;;;;4899063;29;20032;-86
2022/05/27 05:43:23;;;;;;;2.25;1.05;;;13.20;99.90;;;;;;4898717;29;20072;-83
2022/05/27 05:45:48;;;;;;;1.90;1.00;;;13.20;99.90;;;;;;4914292;29;20032;-83
2022/05/27 05:48:14;;;;;;;2.95;1.10;;;13.20;99.90;;;;;;4903034;29;20028;-83
2022/05/27 05:50:40;;;;;;;2.10;0.82;;;13.20;99.90;;;;;;4914852;29;20032;-83
2022/05/27 05:53:05;;;;;;;5.95;1.25;;;13.30;99.90;;;;;;4908545;29;20027;-82
2022/05/27 05:55:35;;;;;;;5.45;1.05;;;13.30;99.90;;;;;;4895725;29;20032;-82
2022/05/27 05:58:02;;;;;;;4.10;1.52;;;13.30;99.90;;;;;;4895678;29;20466;-82
2022/05/27 06:00:28;;;;;;;2.67;1.27;;;13.40;99.90;;;;;;4893947;29;20031;-83
2022/05/27 06:02:55;;;;;;;7.28;1.75;;;13.40;99.90;;;;;;4908410;29;20472;-82
2022/05/27 06:05:22;;;;;;;4.78;1.10;;;13.50;99.90;;;;;;4910058;29;20024;-83
2022/05/27 06:07:48;;;;;;;4.95;1.40;;;13.50;99.90;;;;;;4898578;29;20036;-83
2022/05/27 06:10:15;;;;;;;6.97;1.52;;;13.60;99.90;;;;;;4898584;29;20032;-82
2022/05/27 06:12:42;;;;;;;6.40;1.58;;;13.60;99.90;;;;;;4916183;29;20035;-82
2022/05/27 06:15:14;;;;;;;5.00;1.40;;;13.60;99.90;;;;;;4913729;29;20036;-82
2022/05/27 06:17:47;;;;;;;3.30;1.00;;;13.70;99.90;;;;;;4900595;29;20043;-83
2022/05/27 06:20:13;;;;;;;6.85;1.80;;;13.80;99.90;;;;;;4902027;29;20036;-82
2022/05/27 06:22:39;;;;;;;2.13;1.30;;;13.80;99.90;;;;;;4899181;29;20028;-82
2022/05/27 06:25:07;;;;;;;6.40;1.00;;;13.80;99.90;;;;;;4914445;29;20369;-82
2022/05/27 06:27:33;;;;;;;3.28;0.95;;;13.90;99.90;;;;;;4915856;29;20374;-82
2022/05/27 06:35:40;;;;;;;5.75;1.10;;;14.00;99.90;;;;;;4878566;29;20033;-82
2022/05/27 06:38:07;;;;;;;3.95;1.08;;;14.00;99.90;;;;;;4915014;29;20079;-82
2022/05/27 06:40:33;;;;;;;3.15;1.10;;;14.10;99.90;;;;;;4913834;29;20027;-82
2022/05/27 06:42:59;;;;;;;3.97;1.50;;;14.10;99.90;;;;;;4915001;29;20472;-82
2022/05/27 06:45:25;;;;;;;6.68;1.42;;;14.10;99.90;;;;;;4909125;29;20396;-82
2022/05/27 06:47:50;;;;;;;4.63;1.45;;;14.20;99.90;;;;;;4915218;29;20503;-83
2022/05/27 06:50:16;;;;;;;4.40;1.15;;;14.20;99.90;;;;;;4898250;29;20036;-85
2022/05/27 06:52:44;;;;;;;3.53;1.42;;;14.20;99.90;;;;;;4915800;29;20047;-82
2022/05/27 06:55:12;;;;;;;4.85;1.60;;;14.20;99.90;;;;;;4914351;29;20036;-83
2022/05/27 06:57:38;;;;;;;8.90;1.52;;;14.30;99.90;;;;;;4915533;29;20472;-82
2022/05/27 07:00:08;;;;;;;3.78;1.30;;;14.30;99.90;;;;;;4915620;29;20107;-82
2022/05/27 07:02:34;;;;;;;3.85;1.27;;;14.30;99.90;;;;;;4914645;29;20024;-81
2022/05/27 07:05:01;;;;;;;5.05;1.92;;;14.30;99.90;;;;;;4914777;29;20031;-83
2022/05/27 07:07:30;;;;;;;3.67;1.30;;;14.40;99.90;;;;;;4895656;29;20032;-82
2022/05/27 07:09:56;;;;;;;6.25;1.27;;;14.40;99.90;;;;;;4921932;29;20100;-83
2022/05/27 07:12:21;;;;;;;3.83;1.17;;;14.40;99.90;;;;;;4921941;29;20468;-81
2022/05/27 07:14:48;;;;;;;5.70;1.15;;;14.40;99.90;;;;;;4918494;29;20048;-81
2022/05/27 07:17:14;;;;;;;7.78;1.40;;;14.50;99.90;;;;;;4917496;29;20059;-81
2022/05/27 07:19:40;;;;;;;7.35;1.40;;;14.50;99.90;;;;;;4916921;29;20500;-81
2022/05/27 07:22:07;;;;;;;3.50;0.90;;;14.50;99.90;;;;;;4914470;29;20342;-81
2022/05/27 07:24:33;;;;;;;7.70;1.80;;;14.60;99.90;;;;;;4915923;29;20028;-81
2022/05/27 07:26:59;;;;;;;3.30;0.98;;;14.60;99.90;;;;;;4899876;29;20080;-80
2022/05/27 07:29:24;;;;;;;12.20;1.55;;;14.60;99.90;;;;;;4918485;29;20039;-83
2022/05/27 07:35:12;;;;;;;6.97;1.30;;;14.70;99.90;;;;;;4963113;23;20054;-85
2022/05/27 07:37:38;;;;;;;3.28;1.13;;;14.80;99.90;;;;;;4956833;29;20032;-82
2022/05/27 07:40:05;;;;;;;5.85;1.35;;;14.90;99.90;;;;;;4938729;29;20046;-83
2022/05/27 07:42:30;;;;;;;8.73;1.38;;;14.90;99.90;;;;;;4939666;29;20110;-82
2022/05/27 07:44:56;;;;;;;4.45;1.27;;;15.00;99.90;;;;;;4956298;29;20530;-82
2022/05/27 07:47:21;;;;;;;10.73;1.30;;;15.00;99.90;;;;;;4956870;29;20372;-86
2022/05/27 07:49:48;;;;;;;7.70;1.40;;;15.10;99.90;;;;;;4939350;29;20027;-84
2022/05/27 07:52:13;;;;;;;14.30;2.17;;;15.20;99.90;;;;;;4964937;28;20055;-82
2022/05/27 07:54:39;;;;;;;5.45;1.30;;;15.20;99.90;;;;;;4936972;29;20122;-83
2022/05/27 07:57:23;;;;;;;7.60;1.50;;;15.30;99.90;;;;;;4944793;29;20031;-85
2022/05/27 07:59:55;;;;;;;4.15;1.15;;;15.40;99.90;;;;;;4956634;29;20074;-87
2022/05/27 08:02:21;;;;;;;5.30;1.83;;;15.40;99.90;;;;;;4956564;29;20424;-84
2022/05/27 08:04:47;;;;;;;9.40;1.30;;;15.50;99.90;;;;;;4939373;29;20029;-85
2022/05/27 08:07:12;;;;;;;3.30;1.48;;;15.60;99.90;;;;;;4956118;29;20031;-84
2022/05/27 08:09:38;;;;;;;6.13;1.73;;;15.60;99.90;;;;;;4955903;29;20495;-82
2022/05/27 08:12:05;;;;;;;15.48;2.08;;;15.60;99.90;;;;;;4958546;28;20480;-84
2022/05/27 08:14:31;;;;;;;4.90;1.50;;;15.50;99.90;;;;;;4940267;28;20057;-84
2022/05/27 08:16:57;;;;;;;8.40;1.77;;;15.60;99.90;;;;;;4954944;28;20059;-82
2022/05/27 08:19:22;;;;;;;9.18;2.80;;;15.60;99.90;;;;;;4943563;28;20063;-86
2022/05/27 08:21:48;;;;;;;10.32;1.77;;;15.60;99.90;;;;;;4937594;29;20031;-82
2022/05/27 08:24:13;;;;;;;8.60;2.38;;;15.60;99.90;;;;;;4941719;29;20110;-83
2022/05/27 08:26:39;;;;;;;7.20;1.95;;;15.60;99.90;;;;;;4955954;29;20467;-81
2022/05/27 08:29:06;;;;;;;7.43;1.80;;;15.60;99.90;;;;;;4956349;29;20110;-84
2022/05/27 08:31:32;;;;;;;6.80;1.52;;;15.70;99.90;;;;;;4956452;29;20408;-84
2022/05/27 08:39:27;;;;;;;7.75;1.92;;;16.10;99.90;;;;;;4936939;29;20038;-82
2022/05/27 08:42:30;;;;;;;5.68;1.30;;;16.20;99.90;;;;;;4949838;28;20030;-82
2022/05/27 08:45:32;;;;;;;6.60;1.83;;;16.30;99.90;;;;;;4957001;28;20042;-83
2022/05/27 08:48:01;;;;;;;7.45;1.40;;;16.40;99.90;;;;;;4945927;28;20123;-83
2022/05/27 08:50:32;;;;;;;3.20;1.45;;;16.40;99.90;;;;;;4943415;28;20454;-81
2022/05/27 08:53:13;;;;;;;8.10;1.75;;;16.40;99.90;;;;;;4961715;28;20035;-82
2022/05/27 09:01:52;;;;;;;6.35;1.63;;;16.50;99.90;;;;;;4936653;29;20038;-84
2022/05/27 09:04:18;;;;;;;2.42;1.30;;;16.60;99.90;;;;;;4934844;29;20075;-84
2022/05/27 09:06:57;;;;;;;3.58;1.48;;;16.70;99.90;;;;;;4919257;29;20028;-86
2022/05/27 09:09:30;;;;;;;4.55;1.20;;;16.80;99.90;;;;;;4934826;29;20035;-84
2022/05/27 09:12:18;;;;;;;5.47;1.30;;;16.80;99.90;;;;;;4936240;29;20087;-82
2022/05/27 09:14:58;;;;;;;10.93;1.73;;;16.80;99.90;;;;;;4946901;29;20604;-83
2022/05/27 09:17:40;;;;;;;11.43;1.70;;;16.90;99.90;;;;;;4964570;28;20026;-83
2022/05/27 09:20:30;;;;;;;4.97;1.30;;;16.80;99.90;;;;;;4956832;28;20030;-84
2022/05/27 09:23:28;;;;;;;11.45;1.95;;;16.90;99.90;;;;;;4947795;29;20039;-83
2022/05/27 09:25:56;;;;;;;7.43;2.08;;;17.00;99.90;;;;;;4957122;28;20073;-85
2022/05/27 09:28:52;;;;;;;9.05;2.47;;;17.00;99.90;;;;;;4953557;28;20028;-82
2022/05/27 09:31:43;;;;;;;12.77;1.70;;;17.10;99.90;;;;;;4957478;28;20495;-84
2022/05/27 09:34:11;;;;;;;4.18;1.42;;;17.00;99.90;;;;;;4948768;28;20491;-83
2022/05/27 09:36:44;;;;;;;7.07;1.33;;;16.80;99.90;;;;;;4955855;28;20416;-84
2022/05/27 09:39:15;;;;;;;6.20;1.30;;;16.70;99.90;;;;;;4944827;28;20047;-83
2022/05/27 09:41:55;;;;;;;10.40;1.95;;;16.60;99.90;;;;;;4960850;28;20386;-82
2022/05/27 09:47:36;;;;;;;9.18;1.90;;;16.80;99.90;;;;;;4943142;28;20041;-82
2022/05/27 09:50:09;;;;;;;8.15;1.80;;;17.00;99.90;;;;;;4958665;28;20031;-84
2022/05/27 09:52:39;;;;;;;7.68;1.38;;;17.10;99.90;;;;;;4960392;28;20027;-86
2022/05/27 09:55:46;;;;;;;5.00;1.40;;;17.10;99.90;;;;;;4961195;28;20031;-84
2022/05/27 09:58:35;;;;;;;;;;;17.00;99.90;;;;;;4910189;28;20125;-84
2022/05/27 10:01:27;;;;;;;7.78;1.70;;;16.90;99.90;;;;;;4957995;28;19910;-83
2022/05/27 10:04:07;;;;;;;2.80;1.25;;;16.90;99.90;;;;;;4953771;28;20411;-82
2022/05/27 10:06:38;;;;;;;3.85;1.65;;;17.00;99.90;;;;;;4951816;28;20024;-81
2022/05/27 10:09:11;;;;;;;5.28;1.63;;;17.20;99.90;;;;;;4949840;29;20062;-82
2022/05/27 10:11:55;;;;;;;4.10;1.45;;;17.50;99.90;;;;;;4952142;28;20402;-82
2022/05/27 10:14:23;;;;;;;4.80;1.50;;;17.70;99.90;;;;;;4961659;28;20023;-83
2022/05/27 10:17:09;;;;;;;10.40;1.70;;;17.80;99.90;;;;;;4972557;28;20053;-83
2022/05/27 10:19:38;;;;;;;;;;;17.90;99.90;;;;;;4966705;28;20494;-84
2022/05/27 10:22:23;;;;;;;12.30;1.70;;;17.80;99.90;;;;;;4958493;28;20006;-83
2022/05/27 10:25:05;;;;;;;9.75;1.67;;;17.70;99.90;;;;;;4957312;28;20023;-82
2022/05/27 10:27:36;;;;;;;8.20;1.73;;;17.70;99.90;;;;;;4943556;28;20516;-82
2022/05/27 10:30:29;;;;;;;8.93;1.65;;;17.60;99.90;;;;;;4951860;28;20024;-83
2022/05/27 10:33:16;;;;;;;10.18;2.08;;;17.60;99.90;;;;;;4935185;29;20059;-84
2022/05/27 10:35:43;;;;;;;6.15;1.85;;;17.50;99.90;;;;;;4936495;28;20036;-85
2022/05/27 10:38:54;;;;;;;5.53;1.58;;;17.30;99.90;;;;;;4938243;29;20117;-83
2022/05/27 10:41:47;;;;;;;7.65;1.55;;;17.20;99.90;;;;;;4959565;28;20024;-85
2022/05/27 10:44:39;;;;;;;6.80;1.73;;;17.10;99.90;;;;;;4957084;28;20469;-83
2022/05/27 10:47:24;;;;;;;5.50;1.40;;;17.00;99.90;;;;;;4958326;29;20027;-83
2022/05/27 10:49:55;;;;;;;8.65;1.98;;;17.00;99.90;;;;;;4958472;29;20178;-86
2022/05/27 10:52:29;;;;;;;5.90;1.20;;;16.90;99.90;;;;;;4941131;29;20070;-83
2022/05/27 10:55:00;;;;;;;6.22;1.73;;;16.80;99.90;;;;;;4940409;29;20058;-86
2022/05/27 11:03:43;;;;;;;11.98;1.75;;;17.00;99.90;;;;;;4957824;29;20058;-85
2022/05/27 11:06:26;;;;;;;8.05;1.50;;;17.40;99.90;;;;;;4946249;28;20110;-84
2022/05/27 11:09:25;;;;;;;7.43;1.90;;;17.60;99.90;;;;;;4957181;29;20034;-84
2022/05/27 11:11:59;;;;;;;9.38;2.22;;;17.80;99.90;;;;;;4957466;29;20031;-83
2022/05/27 11:15:20;;;;;;;9.75;1.48;;;18.00;99.90;;;;;;4957167;29;20115;-89
2022/05/27 11:18:15;;;;;;;13.65;1.80;;;18.10;95.50;;;;;;4944456;29;20043;-87
2022/05/27 11:21:05;;;;;;;6.20;1.92;;;18.10;98.30;;;;;;4957467;29;20432;-88
2022/05/27 11:23:46;;;;;;;8.32;2.20;;;18.20;85.90;;;;;;4956760;29;20027;-90
2022/05/27 11:26:35;;;;;;;5.97;1.70;;;18.20;81.80;;;;;;4958612;28;20019;-87
2022/05/27 11:29:38;;;;;;;10.68;1.55;;;18.20;87.70;;;;;;4959967;28;20117;-88
2022/05/27 11:32:29;;;;;;;10.32;2.38;;;18.30;80.80;;;;;;4948527;29;20031;-87
2022/05/27 11:35:31;;;;;;;7.78;1.90;;;18.40;82.70;;;;;;4939490;29;20466;-83
2022/05/27 11:38:05;;;;;;;7.63;1.90;;;18.40;86.00;;;;;;4956508;29;20027;-83
2022/05/27 11:40:41;;;;;;;9.35;1.88;;;18.60;84.60;;;;;;4938508;29;20376;-86
2022/05/27 11:43:21;;;;;;;9.93;1.60;;;18.50;70.90;;;;;;4921479;29;20118;-86
2022/05/27 11:45:55;;;;;;;8.23;1.63;;;18.40;78.30;;;;;;4927640;29;20063;-86
2022/05/27 11:48:59;;;;;;;5.53;1.42;;;18.50;78.90;;;;;;4956338;29;20037;-85
2022/05/27 11:51:34;;;;;;;13.00;1.88;;;18.60;69.40;;;;;;4917821;29;20431;-88
2022/05/27 11:54:08;;;;;;;11.30;2.40;;;18.80;57.30;;;;;;4957103;28;20101;-85
2022/05/27 11:56:55;;;;;;;5.13;1.33;;;18.80;60.10;;;;;;4965910;28;20024;-88
2022/05/27 11:59:28;;;;;;;18.85;1.90;;;19.00;51.10;;;;;;4950039;28;20132;-87
2022/05/27 12:02:00;;;;;;;8.50;1.77;;;18.70;53.40;;;;;;4955319;28;20479;-89
2022/05/27 12:04:33;;;;;;;15.50;2.38;;;18.80;54.20;;;;;;4946014;28;20022;-87
2022/05/27 12:07:38;;;;;;;10.65;1.77;;;18.80;55.70;;;;;;4944196;29;20086;-85
2022/05/27 12:10:13;;;;;;;7.63;2.22;;;18.90;57.70;;;;;;4936237;29;20042;-89
2022/05/27 12:12:59;;;;;;;8.93;1.50;;;19.10;54.80;;;;;;4946424;28;21731;-87
2022/05/27 12:15:30;;;;;;;11.75;2.00;;;19.10;47.80;;;;;;4962877;28;20804;-88
2022/05/27 12:17:57;;;;;;;17.02;2.72;;;18.90;46.40;;;;;;4945570;28;20164;-91
2022/05/27 12:20:33;;;;;;;12.70;1.90;;;18.90;47.90;;;;;;4940306;28;20493;-91
2022/05/27 12:23:05;;;;;;;7.93;2.22;;;19.00;48.10;;;;;;4939980;28;20158;-86
2022/05/27 12:25:55;;;;;;;12.40;2.35;;;19.10;43.90;;;;;;4970150;28;20023;-88
2022/05/27 12:28:28;;;;;;;14.60;2.50;;;19.10;48.10;;;;;;4957613;28;20023;-86
2022/05/27 12:31:06;;;;;;;10.20;1.75;;;19.30;45.80;;;;;;4953281;28;20115;-88
2022/05/27 12:33:38;;;;;;;11.13;2.10;;;19.30;45.30;;;;;;4967072;28;20062;-90
2022/05/27 12:36:18;;;;;;;13.45;1.90;;;19.30;44.80;;;;;;4964951;28;20475;-85
2022/05/27 12:38:47;;;;;;;7.57;1.58;;;19.30;45.90;;;;;;4946770;29;20102;-87
2022/05/27 12:41:32;;;;;;;6.40;1.75;;;19.30;45.90;;;;;;4957629;28;20046;-90
2022/05/27 12:44:01;;;;;;;8.43;2.50;;;19.40;44.50;;;;;;4951553;28;20027;-88
2022/05/27 12:47:13;;;;;;;12.82;2.35;;;19.20;45.10;;;;;;4957472;28;20031;-90
2022/05/27 12:49:41;;;;;;;9.40;1.73;;;19.20;45.50;;;;;;4962920;28;20047;-87
2022/05/27 12:52:30;;;;;;;11.90;2.00;;;19.20;46.30;;;;;;4958005;28;20198;-86
2022/05/27 12:54:59;;;;;;;4.47;1.52;;;19.20;44.50;;;;;;4946615;28;20085;-87
2022/05/27 13:00:56;;;;;;;5.13;1.38;;;19.10;45.50;;;;;;4943513;28;20042;-88
2022/05/27 13:03:41;;;;;;;11.75;1.83;;;19.30;45.80;;;;;;4939247;29;20378;-87
2022/05/27 13:06:18;;;;;;;9.85;1.95;;;19.50;44.70;;;;;;4950950;28;20020;-88
2022/05/27 13:09:07;;;;;;;20.25;1.80;;;19.60;44.60;;;;;;4934879;29;20038;-86
2022/05/27 13:11:39;;;;;;;8.50;2.35;;;19.20;43.20;;;;;;4946147;29;20403;-86
2022/05/27 13:14:04;;;;;;;8.27;1.65;;;18.90;44.60;;;;;;4951138;28;20023;-87
2022/05/27 13:17:05;;;;;;;4.50;1.73;;;18.80;45.60;;;;;;4956096;29;20055;-85
2022/05/27 13:19:55;;;;;;;8.55;1.65;;;18.80;47.30;;;;;;4940946;28;20035;-86
2022/05/27 13:22:51;;;;;;;13.98;1.58;;;19.00;47.00;;;;;;4949176;28;20023;-87
2022/05/27 13:25:37;;;;;;;8.20;2.03;;;19.10;46.00;;;;;;4964454;28;20022;-87
2022/05/27 13:28:36;;;;;;;3.75;1.45;;;19.00;45.90;;;;;;4955709;28;20030;-84
2022/05/27 13:31:02;;;;;;;7.28;1.60;;;18.80;46.50;;;;;;4943989;28;20031;-85
2022/05/27 13:34:06;;;;;;;7.03;2.22;;;18.60;47.40;;;;;;4923869;28;20042;-87
2022/05/27 13:37:07;;;;;;;8.70;1.70;;;18.50;48.00;;;;;;4939540;29;20094;-87
2022/05/27 13:39:41;;;;;;;10.88;2.05;;;18.40;49.70;;;;;;4956394;28;20023;-84
2022/05/27 13:42:11;;;;;;;18.08;2.25;;;18.50;51.20;;;;;;4936450;29;20031;-85
2022/05/27 13:45:10;;;;;;;10.93;3.47;;;18.60;53.80;;;;;;4921941;29;20410;-87
2022/05/27 13:47:40;;;;;;;11.73;3.50;;;18.60;59.90;;;;;;4937776;29;20041;-84
2022/05/27 13:50:41;;;;;;;16.67;2.25;;;18.30;68.50;;;;;;4944853;28;20030;-83
2022/05/27 13:53:26;;;;;;;10.93;2.40;;;18.10;77.50;;;;;;4954014;28;20039;-84
2022/05/27 13:56:23;;;;;;;17.33;2.15;;;17.90;86.60;;;;;;4945897;29;20035;-84
2022/05/27 13:59:02;;;;;;;10.20;2.33;;;17.80;93.40;;;;;;4955328;28;20502;-85
2022/05/27 14:01:57;;;;;;;11.60;2.47;;;17.70;96.20;;;;;;4962355;28;20034;-83
2022/05/27 14:04:39;;;;;;;14.65;2.92;;;17.30;98.80;;;;;;4927916;28;20964;-84
2022/05/27 14:07:29;;;;;;;9.55;2.60;;;17.20;99.90;;;;;;4940095;28;20022;-85
2022/05/27 14:10:01;;;;;;;10.88;2.28;;;17.20;99.90;;;;;;4955790;28;20054;-84
2022/05/27 14:12:37;;;;;;;14.73;3.17;;;17.10;99.90;;;;;;4934991;29;20480;-84
2022/05/27 14:15:38;;;;;;;9.88;2.35;;;17.00;99.90;;;;;;4950742;29;20157;-85